Ari, Indiana
Current Conditions -  °F | °C
As of 5:35 AM on Saturday 22 Nov 2014 (Local Time) from KGWB Reporting Station
Haze Haze  
Wind Chill: -3°   Ceiling: 1700
Heat Index:   Visibility: 5mi
Dew Point: -1°   Wind: 6mph
Humidity: 93%   Direction: 200°SSW
Pressure: 30.17"   Gusts: NA
Location:  41.225°N, 85.325°W
Report Text: KGWB 221035Z AUTO 20005KT 5SM BR OVC017 00/M01 A3017 RMK AO2 P0002
Loading
Personal Weather Stations






























Interactive Weather Map New forecast layout! Learn more

10-Day Weather Forecast

Advertisements
Track Severe Weather on mobile